createdAt,value
2023-04-16T00:02:27.730Z,84.70
2023-04-16T00:05:17.188Z,85.00
2023-04-16T00:08:06.509Z,84.90
2023-04-16T00:10:56.234Z,85.20
2023-04-16T00:13:45.586Z,85.30
2023-04-16T00:16:35.683Z,85.20
2023-04-16T00:19:26.417Z,85.10
2023-04-16T00:22:15.812Z,85.20
2023-04-16T00:25:05.940Z,84.70
2023-04-16T00:27:55.229Z,84.40
2023-04-16T00:30:44.820Z,84.00
2023-04-16T00:33:34.165Z,83.80
2023-04-16T00:36:25.512Z,83.60
2023-04-16T00:39:14.848Z,83.60
2023-04-16T00:42:05.451Z,82.90
2023-04-16T00:44:54.769Z,82.90
2023-04-16T00:47:44.252Z,83.10
2023-04-16T00:50:34.565Z,83.30
2023-04-16T00:53:25.617Z,83.50
2023-04-16T00:56:17.454Z,83.70
2023-04-16T00:59:07.504Z,83.30
2023-04-16T01:01:57.198Z,83.30
2023-04-16T01:04:46.640Z,83.20
2023-04-16T01:07:36.141Z,83.20
2023-04-16T01:10:26.853Z,82.90
2023-04-16T01:13:16.222Z,83.10
2023-04-16T01:16:06.121Z,82.50
2023-04-16T01:18:55.603Z,82.40
2023-04-16T01:21:46.701Z,82.40
2023-04-16T01:24:36.619Z,82.90
2023-04-16T01:27:27.061Z,82.90
2023-04-16T01:30:16.570Z,83.20
2023-04-16T01:33:18.160Z,83.50
2023-04-16T01:36:08.363Z,83.60
2023-04-16T01:38:59.142Z,83.70
2023-04-16T01:41:49.431Z,84.20
2023-04-16T01:44:38.769Z,83.80
2023-04-16T01:47:28.220Z,83.60
2023-04-16T01:50:18.307Z,83.80
2023-04-16T01:53:07.613Z,83.10
2023-04-16T01:55:58.364Z,82.70
2023-04-16T01:58:48.224Z,83.30
2023-04-16T02:01:39.399Z,82.70
2023-04-16T02:04:28.969Z,82.50
2023-04-16T02:07:18.238Z,82.60
2023-04-16T02:10:10.366Z,82.80
2023-04-16T02:13:03.208Z,82.90
2023-04-16T02:15:54.181Z,83.10
2023-04-16T02:18:53.718Z,83.90
2023-04-16T02:21:45.247Z,83.70
2023-04-16T02:24:34.719Z,83.90
2023-04-16T02:27:28.583Z,84.30
2023-04-16T02:30:26.205Z,84.40
2023-04-16T02:33:16.586Z,85.20
2023-04-16T02:36:17.543Z,84.90
2023-04-16T02:39:07.029Z,84.80
2023-04-16T02:41:56.420Z,84.90
2023-04-16T02:44:45.801Z,85.00
2023-04-16T02:47:36.564Z,84.90
2023-04-16T02:50:25.943Z,85.20
2023-04-16T02:53:15.373Z,85.10
2023-04-16T02:56:05.041Z,85.70
2023-04-16T02:58:54.351Z,86.00
2023-04-16T03:01:43.840Z,86.30
2023-04-16T03:04:35.890Z,86.40
2023-04-16T03:07:25.876Z,87.40
2023-04-16T03:10:15.217Z,86.80
2023-04-16T03:13:05.501Z,87.00
2023-04-16T03:15:54.782Z,86.80
2023-04-16T03:18:44.230Z,86.80
2023-04-16T03:21:34.867Z,86.90
2023-04-16T03:24:24.096Z,87.40
2023-04-16T03:27:13.689Z,87.10
2023-04-16T03:30:03.572Z,87.20
2023-04-16T03:32:55.658Z,87.10
2023-04-16T03:35:45.084Z,87.00
2023-04-16T03:38:36.742Z,86.80
2023-04-16T03:41:26.271Z,87.30
2023-04-16T03:44:15.649Z,87.10
2023-04-16T03:47:05.015Z,87.10
2023-04-16T03:49:54.413Z,86.90
2023-04-16T03:52:44.841Z,86.80
2023-04-16T03:55:36.613Z,86.80
2023-04-16T03:58:25.985Z,87.10
2023-04-16T04:01:15.893Z,86.30
2023-04-16T04:04:05.465Z,86.30
2023-04-16T04:06:54.857Z,86.20
2023-04-16T04:09:44.707Z,86.20
2023-04-16T04:12:35.376Z,86.20
2023-04-16T04:15:24.715Z,86.60
2023-04-16T04:18:14.419Z,86.20
2023-04-16T04:21:07.835Z,86.40
2023-04-16T04:23:57.236Z,87.00
2023-04-16T04:26:46.981Z,86.90
2023-04-16T04:29:38.077Z,87.30
2023-04-16T04:32:28.232Z,88.10
2023-04-16T04:35:17.653Z,88.10
2023-04-16T04:38:06.962Z,88.60
2023-04-16T04:40:57.273Z,89.10
2023-04-16T04:43:48.778Z,89.50
2023-04-16T04:46:40.997Z,90.00
2023-04-16T04:49:30.685Z,90.60
2023-04-16T04:52:20.525Z,91.00
2023-04-16T04:55:10.796Z,91.80
2023-04-16T04:58:00.207Z,92.50
2023-04-16T05:00:49.609Z,92.80
2023-04-16T05:03:40.458Z,92.90
2023-04-16T05:06:29.819Z,93.60
2023-04-16T05:09:19.131Z,94.30
2023-04-16T05:12:08.436Z,93.50
2023-04-16T05:14:57.764Z,92.40
2023-04-16T05:17:47.102Z,91.70
2023-04-16T05:20:37.987Z,91.30
2023-04-16T05:23:27.284Z,91.00
2023-04-16T05:26:16.606Z,90.80
2023-04-16T05:29:05.925Z,90.70
2023-04-16T05:31:55.217Z,90.50
2023-04-16T05:34:44.592Z,90.20
2023-04-16T05:37:35.294Z,90.20
2023-04-16T05:40:24.586Z,90.40
2023-04-16T05:43:13.918Z,91.30
2023-04-16T05:46:03.281Z,92.90
2023-04-16T05:48:52.683Z,93.90
2023-04-16T05:51:42.056Z,94.10
2023-04-16T05:54:32.728Z,94.00
2023-04-16T05:57:22.003Z,93.90
2023-04-16T06:00:12.161Z,95.00
2023-04-16T06:03:01.648Z,96.00
2023-04-16T06:05:51.148Z,96.20
2023-04-16T06:08:40.600Z,95.40
2023-04-16T06:11:31.728Z,95.20
2023-04-16T06:14:21.068Z,95.00
2023-04-16T06:17:10.433Z,94.20
2023-04-16T06:19:59.716Z,93.10
2023-04-16T06:22:49.080Z,92.10
2023-04-16T06:25:38.440Z,91.00
2023-04-16T06:28:29.167Z,90.10
2023-04-16T06:31:18.466Z,88.40
2023-04-16T06:34:07.787Z,87.80
2023-04-16T06:36:57.329Z,86.50
2023-04-16T06:39:46.678Z,85.40
2023-04-16T06:42:36.128Z,84.80
2023-04-16T06:45:26.952Z,84.50
2023-04-16T06:48:16.305Z,84.30
2023-04-16T06:51:05.916Z,84.80
2023-04-16T06:53:55.248Z,84.60
2023-04-16T06:56:44.612Z,84.50
2023-04-16T06:59:34.113Z,84.30
2023-04-16T07:02:26.052Z,84.10
2023-04-16T07:05:15.553Z,83.30
2023-04-16T07:08:05.101Z,84.00
2023-04-16T07:10:54.915Z,84.30
2023-04-16T07:13:44.415Z,84.80
2023-04-16T07:16:33.712Z,85.50
2023-04-16T07:19:24.523Z,86.00
2023-04-16T07:22:13.904Z,86.10
2023-04-16T07:25:03.485Z,87.10
2023-04-16T07:27:53.016Z,87.50
2023-04-16T07:30:42.364Z,87.80
2023-04-16T07:33:31.787Z,88.20
2023-04-16T07:36:22.658Z,88.20
2023-04-16T07:39:13.190Z,87.40
2023-04-16T07:42:02.692Z,87.80
2023-04-16T07:44:52.022Z,87.70
2023-04-16T07:47:41.600Z,87.40
2023-04-16T07:50:31.015Z,86.80
2023-04-16T07:53:21.766Z,85.90
2023-04-16T07:56:11.437Z,84.50
2023-04-16T07:59:07.914Z,84.40
2023-04-16T08:02:09.035Z,83.40
2023-04-16T08:04:58.556Z,82.10
2023-04-16T08:07:48.087Z,81.00
2023-04-16T08:10:38.894Z,79.90
2023-04-16T08:13:28.338Z,78.40
2023-04-16T08:16:17.764Z,78.00
2023-04-16T08:19:07.858Z,77.40
2023-04-16T08:21:57.812Z,76.60
2023-04-16T08:24:47.235Z,76.30
2023-04-16T08:27:37.985Z,76.20
2023-04-16T08:30:27.489Z,75.80
2023-04-16T08:33:16.983Z,76.20
2023-04-16T08:36:07.075Z,76.20
2023-04-16T08:38:56.459Z,76.30
2023-04-16T08:41:48.510Z,76.10
2023-04-16T08:44:49.544Z,75.20
2023-04-16T08:47:39.025Z,74.30
2023-04-16T08:50:29.088Z,75.80
2023-04-16T08:53:21.574Z,75.70
2023-04-16T08:56:12.985Z,74.80
2023-04-16T08:59:05.194Z,74.50
2023-04-16T09:02:00.141Z,74.30
2023-04-16T09:04:51.568Z,72.70
2023-04-16T09:07:42.973Z,73.00
2023-04-16T09:10:32.837Z,72.70
2023-04-16T09:13:23.874Z,73.30
2023-04-16T09:16:16.031Z,72.50
2023-04-16T09:19:07.357Z,72.30
2023-04-16T09:21:57.887Z,72.30
2023-04-16T09:24:48.053Z,72.90
2023-04-16T09:27:38.933Z,72.70
2023-04-16T09:30:29.239Z,72.80
2023-04-16T09:33:23.351Z,72.90
2023-04-16T09:36:14.531Z,72.50
2023-04-16T09:39:05.119Z,72.10
2023-04-16T09:41:56.340Z,72.00
2023-04-16T09:44:46.224Z,71.50
2023-04-16T09:47:44.203Z,70.90
2023-04-16T09:50:33.668Z,69.70
2023-04-16T09:53:27.525Z,70.50
2023-04-16T09:56:16.980Z,69.50
2023-04-16T09:59:06.398Z,70.00
2023-04-16T10:02:15.619Z,69.90
2023-04-16T10:05:06.815Z,68.90
2023-04-16T10:08:02.113Z,69.40
2023-04-16T10:10:54.300Z,69.00
2023-04-16T10:13:43.966Z,68.20
2023-04-16T10:16:41.696Z,68.20
2023-04-16T10:19:32.676Z,67.50
2023-04-16T10:22:22.437Z,67.40
2023-04-16T10:25:12.490Z,67.20
2023-04-16T10:28:02.615Z,66.80
2023-04-16T10:30:53.619Z,66.70
2023-04-16T10:33:45.430Z,66.40
2023-04-16T10:36:40.055Z,65.90
2023-04-16T10:39:30.357Z,65.40
2023-04-16T10:42:19.709Z,66.00
2023-04-16T10:45:12.958Z,66.00
2023-04-16T10:48:08.608Z,65.40
2023-04-16T10:51:00.368Z,65.30
2023-04-16T10:53:49.688Z,65.70
2023-04-16T10:56:39.165Z,65.90
2023-04-16T10:59:34.826Z,66.30
2023-04-16T11:02:30.661Z,65.90
2023-04-16T11:05:23.798Z,66.20
2023-04-16T11:08:17.526Z,66.90
2023-04-16T11:11:07.917Z,67.20
2023-04-16T11:13:58.106Z,68.50
2023-04-16T11:16:47.613Z,68.50
2023-04-16T11:19:38.053Z,68.10
2023-04-16T11:22:28.304Z,67.70
2023-04-16T11:25:23.272Z,67.90
2023-04-16T11:28:12.617Z,65.60
2023-04-16T11:31:11.754Z,65.70
2023-04-16T11:34:01.230Z,64.70
2023-04-16T11:36:52.772Z,63.90
2023-04-16T11:39:52.963Z,63.30
2023-04-16T11:42:44.312Z,61.40
2023-04-16T11:45:33.774Z,62.60
2023-04-16T11:48:23.080Z,62.50
2023-04-16T11:51:12.507Z,62.40
2023-04-16T11:54:01.932Z,62.20
2023-04-16T11:56:53.125Z,62.00
2023-04-16T12:00:01.524Z,61.70
2023-04-16T12:03:12.727Z,60.90
2023-04-16T12:06:09.888Z,61.60
2023-04-16T12:08:59.289Z,60.50
2023-04-16T12:11:48.560Z,61.20
2023-04-16T12:14:37.885Z,60.70
2023-04-16T12:17:28.607Z,60.60
2023-04-16T12:20:18.070Z,59.90
2023-04-16T12:23:08.236Z,60.00
2023-04-16T12:26:03.142Z,60.10
2023-04-16T12:28:52.588Z,60.10
2023-04-16T12:31:41.976Z,60.20
2023-04-16T12:34:48.415Z,60.10
2023-04-16T12:37:39.326Z,59.80
2023-04-16T12:40:28.740Z,60.00
2023-04-16T12:43:18.130Z,60.10
2023-04-16T12:46:07.515Z,59.90
2023-04-16T12:48:57.644Z,59.60
2023-04-16T12:51:48.438Z,59.60
2023-04-16T12:54:37.855Z,59.30
2023-04-16T12:57:28.805Z,59.20
2023-04-16T13:00:18.945Z,59.80
2023-04-16T13:03:08.547Z,59.00
2023-04-16T13:05:58.055Z,58.70
2023-04-16T13:08:48.765Z,58.20
2023-04-16T13:11:38.190Z,57.80
2023-04-16T13:14:27.482Z,57.70
2023-04-16T13:17:16.968Z,57.60
2023-04-16T13:20:07.686Z,57.40
2023-04-16T13:22:57.204Z,57.30
2023-04-16T13:25:50.512Z,57.50
2023-04-16T13:28:40.140Z,57.50
2023-04-16T13:31:29.621Z,57.80
2023-04-16T13:34:18.977Z,57.90
2023-04-16T13:37:08.462Z,57.80
2023-04-16T13:39:57.863Z,57.70
2023-04-16T13:42:48.609Z,57.40
2023-04-16T13:45:39.460Z,57.20
2023-04-16T13:48:29.882Z,57.20
2023-04-16T13:51:19.325Z,57.30
2023-04-16T13:54:08.587Z,57.50
2023-04-16T13:56:58.172Z,57.50
2023-04-16T13:59:48.925Z,57.60
2023-04-16T14:02:38.321Z,57.80
2023-04-16T14:05:28.149Z,58.00
2023-04-16T14:08:17.476Z,58.00
2023-04-16T14:11:07.108Z,57.80
2023-04-16T14:13:56.641Z,57.70
2023-04-16T14:16:47.477Z,57.50
2023-04-16T14:19:36.853Z,57.40
2023-04-16T14:22:26.338Z,57.40
2023-04-16T14:25:15.768Z,57.20
2023-04-16T14:28:05.557Z,57.10
2023-04-16T14:30:54.833Z,57.10
2023-04-16T14:33:45.888Z,57.10
2023-04-16T14:36:35.253Z,57.10
2023-04-16T14:39:25.375Z,57.20
2023-04-16T14:42:14.767Z,57.10
2023-04-16T14:45:06.442Z,56.90
2023-04-16T14:47:56.226Z,56.90
2023-04-16T14:50:47.044Z,57.00
2023-04-16T14:53:38.131Z,57.00
2023-04-16T14:56:27.586Z,57.30
2023-04-16T14:59:16.982Z,57.40
2023-04-16T15:02:06.801Z,57.50
2023-04-16T15:04:56.281Z,57.60
2023-04-16T15:07:47.264Z,57.50
2023-04-16T15:10:37.710Z,57.50
2023-04-16T15:13:33.624Z,57.60
2023-04-16T15:16:23.057Z,57.70
2023-04-16T15:19:12.598Z,57.70
2023-04-16T15:22:02.210Z,57.60
2023-04-16T15:24:54.020Z,57.60
2023-04-16T15:27:43.346Z,57.90
2023-04-16T15:30:33.178Z,58.10
2023-04-16T15:33:23.018Z,58.10
2023-04-16T15:36:12.501Z,58.20
2023-04-16T15:39:01.933Z,58.20
2023-04-16T15:42:01.189Z,58.20
2023-04-16T15:44:51.165Z,58.30
2023-04-16T15:47:41.908Z,58.40
2023-04-16T15:50:31.447Z,58.30
2023-04-16T15:53:21.064Z,58.30
2023-04-16T15:56:10.602Z,58.50
2023-04-16T15:59:01.325Z,58.50
2023-04-16T16:01:50.961Z,58.50
2023-04-16T16:04:45.861Z,58.70
2023-04-16T16:07:36.742Z,58.80
2023-04-16T16:10:26.357Z,58.60
2023-04-16T16:13:18.198Z,58.60
2023-04-16T16:16:09.178Z,58.50
2023-04-16T16:18:58.498Z,58.70
2023-04-16T16:21:47.855Z,58.80
2023-04-16T16:24:37.285Z,58.90
2023-04-16T16:27:26.819Z,58.90
2023-04-16T16:30:16.371Z,58.80
2023-04-16T16:33:07.197Z,58.70
2023-04-16T16:35:56.502Z,58.80
2023-04-16T16:38:47.408Z,58.90
2023-04-16T16:41:41.863Z,58.90
2023-04-16T16:44:31.267Z,58.80
2023-04-16T16:47:20.700Z,58.80
2023-04-16T16:50:13.118Z,58.80
2023-04-16T16:53:02.781Z,58.90
2023-04-16T16:55:52.263Z,58.80
2023-04-16T16:58:41.726Z,58.80
2023-04-16T17:01:31.433Z,58.80
2023-04-16T17:04:21.145Z,58.80
2023-04-16T17:07:11.909Z,58.80
2023-04-16T17:10:03.697Z,58.90
2023-04-16T17:12:54.672Z,59.00
2023-04-16T17:15:44.060Z,59.10
2023-04-16T17:18:33.595Z,59.30
2023-04-16T17:21:23.028Z,59.30
2023-04-16T17:24:13.965Z,59.30
2023-04-16T17:27:04.526Z,59.50
2023-04-16T17:29:59.772Z,59.40
2023-04-16T17:32:49.224Z,59.60
2023-04-16T17:35:40.992Z,59.70
2023-04-16T17:38:30.574Z,59.80
2023-04-16T17:41:21.424Z,59.90
2023-04-16T17:44:11.835Z,60.20
2023-04-16T17:47:02.158Z,60.40
2023-04-16T17:49:55.170Z,60.50
2023-04-16T17:52:45.035Z,60.80
2023-04-16T17:55:34.413Z,60.70
2023-04-16T17:58:26.357Z,60.90
2023-04-16T18:01:15.784Z,61.00
2023-04-16T18:04:05.480Z,61.00
2023-04-16T18:06:55.017Z,61.20
2023-04-16T18:09:44.344Z,61.20
2023-04-16T18:12:33.704Z,61.20
2023-04-16T18:15:24.488Z,61.30
2023-04-16T18:18:13.986Z,61.30
2023-04-16T18:21:03.294Z,61.20
2023-04-16T18:23:52.638Z,61.20
2023-04-16T18:26:41.920Z,61.20
2023-04-16T18:29:33.953Z,61.30
2023-04-16T18:32:24.987Z,61.70
2023-04-16T18:35:14.456Z,61.90
2023-04-16T18:38:03.704Z,62.10
2023-04-16T18:40:53.055Z,62.10
2023-04-16T18:43:42.353Z,62.30
2023-04-16T18:46:31.735Z,62.40
2023-04-16T18:49:22.551Z,62.40
2023-04-16T18:52:11.962Z,62.70
2023-04-16T18:55:01.447Z,62.60
2023-04-16T18:57:50.856Z,62.80
2023-04-16T19:00:40.324Z,62.70
2023-04-16T19:03:31.005Z,62.90
2023-04-16T19:06:21.809Z,63.10
2023-04-16T19:09:11.725Z,63.40
2023-04-16T19:12:01.899Z,63.50
2023-04-16T19:14:51.220Z,63.70
2023-04-16T19:17:40.552Z,64.00
2023-04-16T19:20:29.907Z,64.20
2023-04-16T19:23:21.167Z,64.30
2023-04-16T19:26:10.544Z,64.50
2023-04-16T19:29:00.679Z,64.50
2023-04-16T19:31:50.107Z,64.60
2023-04-16T19:34:39.491Z,64.50
2023-04-16T19:37:28.825Z,65.30
2023-04-16T19:40:19.802Z,64.70
2023-04-16T19:43:09.103Z,64.80
2023-04-16T19:45:58.450Z,64.80
2023-04-16T19:48:48.360Z,64.90
2023-04-16T19:51:37.694Z,65.10
2023-04-16T19:54:27.371Z,65.20
2023-04-16T19:57:17.998Z,65.40
2023-04-16T20:00:11.949Z,65.50
2023-04-16T20:03:01.498Z,65.70
2023-04-16T20:05:51.069Z,65.80
2023-04-16T20:08:40.896Z,66.10
2023-04-16T20:11:30.200Z,66.30
2023-04-16T20:14:20.902Z,66.50
2023-04-16T20:17:10.439Z,67.00
2023-04-16T20:20:00.934Z,66.90
2023-04-16T20:22:50.573Z,67.10
2023-04-16T20:25:43.338Z,67.20
2023-04-16T20:28:32.828Z,67.80
2023-04-16T20:31:23.723Z,67.50
2023-04-16T20:34:13.075Z,67.80
2023-04-16T20:37:02.687Z,67.70
2023-04-16T20:39:54.214Z,67.90
2023-04-16T20:42:46.112Z,68.10
2023-04-16T20:45:38.330Z,68.20
2023-04-16T20:48:28.984Z,68.20
2023-04-16T20:51:18.782Z,68.60
2023-04-16T20:54:10.161Z,68.20
2023-04-16T20:56:59.752Z,68.30
2023-04-16T20:59:49.051Z,68.60
2023-04-16T21:02:38.547Z,68.80
2023-04-16T21:05:29.912Z,69.00
2023-04-16T21:08:19.601Z,69.20
2023-04-16T21:11:08.946Z,69.10
2023-04-16T21:13:58.283Z,69.10
2023-04-16T21:16:47.667Z,69.20
2023-04-16T21:19:36.912Z,69.30
2023-04-16T21:22:27.544Z,69.50
2023-04-16T21:25:17.092Z,69.70
2023-04-16T21:28:06.820Z,69.70
2023-04-16T21:30:56.321Z,69.90
2023-04-16T21:33:45.860Z,70.20
2023-04-16T21:36:35.125Z,70.30
2023-04-16T21:39:30.694Z,70.50
2023-04-16T21:42:20.036Z,70.90
2023-04-16T21:45:11.007Z,70.80
2023-04-16T21:48:00.336Z,71.10
2023-04-16T21:50:56.041Z,71.10
2023-04-16T21:53:45.413Z,71.20
2023-04-16T21:56:36.081Z,71.20
2023-04-16T21:59:25.511Z,71.60
2023-04-16T22:02:14.913Z,71.20
2023-04-16T22:05:04.397Z,71.40
2023-04-16T22:07:54.338Z,71.70
2023-04-16T22:10:43.635Z,72.10
2023-04-16T22:13:36.521Z,72.30
2023-04-16T22:16:26.135Z,72.80
2023-04-16T22:19:15.513Z,72.70
2023-04-16T22:22:04.806Z,72.60
2023-04-16T22:24:54.141Z,72.70
2023-04-16T22:27:43.466Z,72.70
2023-04-16T22:30:34.155Z,72.80
2023-04-16T22:33:23.510Z,73.00
2023-04-16T22:36:12.861Z,72.80
2023-04-16T22:39:02.183Z,73.10
2023-04-16T22:41:51.582Z,73.50
2023-04-16T22:44:40.910Z,73.60
2023-04-16T22:47:31.639Z,73.50
2023-04-16T22:50:22.568Z,74.00
2023-04-16T22:53:11.893Z,74.00
2023-04-16T22:56:01.862Z,73.90
2023-04-16T22:58:51.108Z,74.00
2023-04-16T23:01:42.157Z,73.70
2023-04-16T23:04:33.362Z,73.80
2023-04-16T23:07:22.671Z,74.50
2023-04-16T23:10:12.376Z,74.20
2023-04-16T23:13:01.957Z,74.40
2023-04-16T23:15:51.398Z,74.60
2023-04-16T23:18:40.696Z,74.30
2023-04-16T23:21:31.335Z,74.40
2023-04-16T23:24:20.712Z,74.90
2023-04-16T23:27:10.093Z,74.80
2023-04-16T23:29:59.447Z,75.10
2023-04-16T23:32:48.804Z,75.30
2023-04-16T23:35:38.187Z,75.50
2023-04-16T23:38:28.999Z,75.40
2023-04-16T23:41:18.347Z,75.80
2023-04-16T23:44:07.645Z,75.80
2023-04-16T23:46:57.422Z,76.00
2023-04-16T23:49:46.808Z,76.20
2023-04-16T23:52:36.393Z,76.40
2023-04-16T23:55:27.245Z,76.70
2023-04-16T23:58:16.536Z,77.30
